createdAt,value
2022-08-28T00:02:18.624Z,17.82
2022-08-28T00:05:08.972Z,17.85
2022-08-28T00:07:57.297Z,17.91
2022-08-28T00:10:46.486Z,17.95
2022-08-28T00:13:37.262Z,18.02
2022-08-28T00:16:26.527Z,18.18
2022-08-28T00:19:16.599Z,18.34
2022-08-28T00:22:04.539Z,18.34
2022-08-28T00:24:52.440Z,18.33
2022-08-28T00:27:55.871Z,18.43
2022-08-28T00:30:54.523Z,18.54
2022-08-28T00:33:42.458Z,18.55
2022-08-28T00:36:33.382Z,18.67
2022-08-28T00:39:24.182Z,18.81
2022-08-28T00:42:12.226Z,18.67
2022-08-28T00:45:00.493Z,18.92
2022-08-28T00:47:48.463Z,18.81
2022-08-28T00:50:56.753Z,18.86
2022-08-28T00:53:49.103Z,18.78
2022-08-28T00:56:43.508Z,18.70
2022-08-28T00:59:31.336Z,18.59
2022-08-28T01:02:19.763Z,18.54
2022-08-28T01:05:09.621Z,18.56
2022-08-28T01:07:59.019Z,18.56
2022-08-28T01:10:53.233Z,18.48
2022-08-28T01:13:46.686Z,18.59
2022-08-28T01:16:36.269Z,18.66
2022-08-28T01:19:35.109Z,18.47
2022-08-28T01:22:43.881Z,18.65
2022-08-28T01:25:35.198Z,18.77
2022-08-28T01:28:23.322Z,18.73
2022-08-28T01:31:16.110Z,18.80
2022-08-28T01:34:05.873Z,18.80
2022-08-28T01:36:53.961Z,18.78
2022-08-28T01:39:41.805Z,18.85
2022-08-28T01:42:29.684Z,18.79
2022-08-28T01:45:20.549Z,18.71
2022-08-28T01:48:09.008Z,18.68
2022-08-28T01:50:56.973Z,18.62
2022-08-28T01:53:45.136Z,18.65
2022-08-28T01:56:38.058Z,18.71
2022-08-28T01:59:26.103Z,18.76
2022-08-28T02:02:14.044Z,18.78
2022-08-28T02:05:01.976Z,18.84
2022-08-28T02:07:53.468Z,18.83
2022-08-28T02:10:43.720Z,18.84
2022-08-28T02:13:31.931Z,18.86
2022-08-28T02:16:21.031Z,18.86
2022-08-28T02:19:08.938Z,18.70
2022-08-28T02:21:56.807Z,18.63
2022-08-28T02:24:45.323Z,18.60
2022-08-28T02:27:33.543Z,18.63
2022-08-28T02:30:21.970Z,18.62
2022-08-28T02:33:09.862Z,18.69
2022-08-28T02:35:57.780Z,18.68
2022-08-28T02:38:55.343Z,18.63
2022-08-28T02:41:45.636Z,18.64
2022-08-28T02:44:34.105Z,18.65
2022-08-28T02:47:21.979Z,18.51
2022-08-28T02:50:13.119Z,18.48
2022-08-28T02:53:01.038Z,18.36
2022-08-28T02:55:48.880Z,18.33
2022-08-28T02:58:36.976Z,18.43
2022-08-28T03:01:24.929Z,18.44
2022-08-28T03:04:13.066Z,18.44
2022-08-28T03:07:00.961Z,18.16
2022-08-28T03:09:50.005Z,18.37
2022-08-28T03:12:38.397Z,18.36
2022-08-28T03:15:26.226Z,18.34
2022-08-28T03:18:15.698Z,18.24
2022-08-28T03:21:04.574Z,18.33
2022-08-28T03:23:52.868Z,18.39
2022-08-28T03:26:40.689Z,18.45
2022-08-28T03:29:28.683Z,18.46
2022-08-28T03:32:16.513Z,18.46
2022-08-28T03:35:05.545Z,18.42
2022-08-28T03:37:53.405Z,18.38
2022-08-28T03:40:42.563Z,18.30
2022-08-28T03:43:31.480Z,18.30
2022-08-28T03:46:23.690Z,18.29
2022-08-28T03:49:11.664Z,18.33
2022-08-28T03:51:59.631Z,18.25
2022-08-28T03:54:48.077Z,18.14
2022-08-28T03:57:37.556Z,18.23
2022-08-28T04:00:25.966Z,18.26
2022-08-28T04:03:14.062Z,18.17
2022-08-28T04:06:02.064Z,18.04
2022-08-28T04:08:51.099Z,17.99
2022-08-28T04:11:42.461Z,18.14
2022-08-28T04:14:30.292Z,18.05
2022-08-28T04:17:18.072Z,18.04
2022-08-28T04:20:08.129Z,18.08
2022-08-28T04:22:55.965Z,18.05
2022-08-28T04:25:43.731Z,17.91
2022-08-28T04:28:32.638Z,17.94
2022-08-28T04:31:31.027Z,17.94
2022-08-28T04:34:20.365Z,17.96
2022-08-28T04:37:08.191Z,17.85
2022-08-28T04:39:56.038Z,17.85
2022-08-28T04:42:45.069Z,17.85
2022-08-28T04:45:33.436Z,17.83
2022-08-28T04:48:21.228Z,17.81
2022-08-28T04:51:12.283Z,17.76
2022-08-28T04:54:02.926Z,17.75
2022-08-28T04:56:51.101Z,17.81
2022-08-28T04:59:40.652Z,17.80
2022-08-28T05:02:28.548Z,17.76
2022-08-28T05:05:17.214Z,17.81
2022-08-28T05:08:06.434Z,17.79
2022-08-28T05:10:55.874Z,17.72
2022-08-28T05:13:43.797Z,17.66
2022-08-28T05:16:32.027Z,17.63
2022-08-28T05:19:21.021Z,17.66
2022-08-28T05:22:11.417Z,17.70
2022-08-28T05:25:01.091Z,17.73
2022-08-28T05:27:48.897Z,17.70
2022-08-28T05:30:38.400Z,17.82
2022-08-28T05:33:26.189Z,17.78
2022-08-28T05:36:16.221Z,17.65
2022-08-28T05:39:09.957Z,17.51
2022-08-28T05:41:57.741Z,17.51
2022-08-28T05:44:45.610Z,17.48
2022-08-28T05:47:33.424Z,17.47
2022-08-28T05:50:21.475Z,17.12
2022-08-28T05:53:09.285Z,17.45
2022-08-28T05:55:57.085Z,17.50
2022-08-28T05:58:45.089Z,17.67
2022-08-28T06:01:37.105Z,17.78
2022-08-28T06:04:28.142Z,18.26
2022-08-28T06:07:16.069Z,18.43
2022-08-28T06:10:04.555Z,18.48
2022-08-28T06:12:54.017Z,18.67
2022-08-28T06:15:43.765Z,18.79
2022-08-28T06:18:31.822Z,18.77
2022-08-28T06:21:20.688Z,18.60
2022-08-28T06:24:10.683Z,18.33
2022-08-28T06:26:59.632Z,18.30
2022-08-28T06:29:47.464Z,18.32
2022-08-28T06:32:35.324Z,18.25
2022-08-28T06:35:23.268Z,18.36
2022-08-28T06:38:14.452Z,18.33
2022-08-28T06:41:02.566Z,18.40
2022-08-28T06:43:50.546Z,18.59
2022-08-28T06:46:38.984Z,18.36
2022-08-28T06:49:26.787Z,18.50
2022-08-28T06:52:14.861Z,18.54
2022-08-28T06:55:02.846Z,18.46
2022-08-28T06:57:51.088Z,18.58
2022-08-28T07:00:40.432Z,18.73
2022-08-28T07:03:30.163Z,18.84
2022-08-28T07:06:19.150Z,18.81
2022-08-28T07:09:11.282Z,18.83
2022-08-28T07:11:59.261Z,18.99
2022-08-28T07:14:47.065Z,19.01
2022-08-28T07:17:34.930Z,19.17
2022-08-28T07:20:22.882Z,19.23
2022-08-28T07:23:11.440Z,18.96
2022-08-28T07:26:00.234Z,19.07
2022-08-28T07:28:48.275Z,19.06
2022-08-28T07:31:37.746Z,18.97
2022-08-28T07:34:26.936Z,19.07
2022-08-28T07:37:17.834Z,19.09
2022-08-28T07:40:07.056Z,18.89
2022-08-28T07:43:14.050Z,19.04
2022-08-28T07:46:07.116Z,19.30
2022-08-28T07:48:55.666Z,19.60
2022-08-28T07:51:43.680Z,19.76
2022-08-28T07:54:36.105Z,19.63
2022-08-28T07:57:24.074Z,19.91
2022-08-28T08:00:13.229Z,20.33
2022-08-28T08:03:01.463Z,20.47
2022-08-28T08:05:57.477Z,20.92
2022-08-28T08:08:46.353Z,21.04
2022-08-28T08:11:34.822Z,21.49
2022-08-28T08:14:23.418Z,21.58
2022-08-28T08:17:12.059Z,21.66
2022-08-28T08:20:01.187Z,21.71
2022-08-28T08:22:49.253Z,21.81
2022-08-28T08:25:37.120Z,21.90
2022-08-28T08:28:26.092Z,22.67
2022-08-28T08:31:27.635Z,22.48
2022-08-28T08:34:16.950Z,22.39
2022-08-28T08:37:05.906Z,22.74
2022-08-28T08:39:54.846Z,23.36
2022-08-28T08:42:49.141Z,24.08
2022-08-28T08:45:38.572Z,24.70
2022-08-28T08:48:37.038Z,25.26
2022-08-28T08:52:06.343Z,25.84
2022-08-28T08:55:28.353Z,26.00
2022-08-28T08:58:38.424Z,25.65
2022-08-28T09:02:07.379Z,25.64
2022-08-28T09:05:17.278Z,26.25
2022-08-28T09:08:19.280Z,26.46
2022-08-28T09:11:50.383Z,26.98
2022-08-28T09:15:11.335Z,27.70
2022-08-28T09:18:22.529Z,28.31
2022-08-28T09:21:29.241Z,28.80
2022-08-28T09:24:33.032Z,28.56
2022-08-28T09:27:52.715Z,28.16
2022-08-28T09:31:19.613Z,28.35
2022-08-28T09:34:35.466Z,30.16
2022-08-28T09:37:32.270Z,30.85
2022-08-28T09:40:52.004Z,31.24
2022-08-28T09:43:47.578Z,30.51
2022-08-28T09:46:45.013Z,30.36
2022-08-28T09:49:37.316Z,29.33
2022-08-28T09:52:28.894Z,28.59
2022-08-28T09:55:49.386Z,28.32
2022-08-28T09:59:03.225Z,28.36
2022-08-28T10:02:38.600Z,28.89
2022-08-28T10:05:55.873Z,30.39
2022-08-28T10:09:06.851Z,30.36
2022-08-28T10:12:41.315Z,29.68
2022-08-28T10:16:15.032Z,28.51
2022-08-28T10:20:00.412Z,29.58
2022-08-28T10:23:37.743Z,28.07
2022-08-28T10:26:48.920Z,28.64
2022-08-28T10:29:53.887Z,28.54
2022-08-28T10:33:34.286Z,27.56
2022-08-28T10:36:34.644Z,25.85
2022-08-28T10:39:56.422Z,25.46
2022-08-28T10:43:07.598Z,24.99
2022-08-28T10:46:07.782Z,24.44
2022-08-28T10:49:11.211Z,24.40
2022-08-28T10:52:19.865Z,24.20
2022-08-28T10:55:43.308Z,24.34
2022-08-28T10:58:39.667Z,24.11
2022-08-28T11:01:40.687Z,24.00
2022-08-28T11:04:30.009Z,23.86
2022-08-28T11:07:37.915Z,23.68
2022-08-28T11:10:52.990Z,23.78
2022-08-28T11:13:57.632Z,23.53
2022-08-28T11:16:47.646Z,23.44
2022-08-28T11:20:28.943Z,23.40
2022-08-28T11:23:46.764Z,23.45
2022-08-28T11:27:16.894Z,23.59
2022-08-28T11:30:31.835Z,23.73
2022-08-28T11:33:52.419Z,23.61
2022-08-28T11:37:03.741Z,23.59
2022-08-28T11:40:54.676Z,23.67
2022-08-28T11:43:47.386Z,23.67
2022-08-28T11:46:48.381Z,23.58
2022-08-28T11:49:42.778Z,23.53
2022-08-28T11:52:52.839Z,23.81
2022-08-28T11:56:43.658Z,23.90
2022-08-28T12:00:05.216Z,23.79
2022-08-28T12:03:15.237Z,23.57
2022-08-28T12:06:04.675Z,23.59
2022-08-28T12:09:05.001Z,23.66
2022-08-28T12:12:07.973Z,23.68
2022-08-28T12:15:07.689Z,23.82
2022-08-28T12:18:11.977Z,23.87
2022-08-28T12:21:31.068Z,23.80
2022-08-28T12:24:24.512Z,23.79
2022-08-28T12:27:16.122Z,23.87
2022-08-28T12:30:06.393Z,23.95
2022-08-28T12:33:44.351Z,24.05
2022-08-28T12:36:37.212Z,24.22
2022-08-28T12:39:31.106Z,24.32
2022-08-28T12:42:29.907Z,24.24
2022-08-28T12:45:31.068Z,24.11
2022-08-28T12:48:48.120Z,24.12
2022-08-28T12:51:38.470Z,24.28
2022-08-28T12:54:30.342Z,24.16
2022-08-28T12:57:25.131Z,24.24
2022-08-28T13:00:24.417Z,24.25
2022-08-28T13:03:15.881Z,24.17
2022-08-28T13:06:09.907Z,24.31
2022-08-28T13:09:04.698Z,24.16
2022-08-28T13:11:53.063Z,24.16
2022-08-28T13:14:46.879Z,24.07
2022-08-28T13:17:52.719Z,24.28
2022-08-28T13:20:44.156Z,24.33
2022-08-28T13:23:34.617Z,24.31
2022-08-28T13:26:36.368Z,24.31
2022-08-28T13:29:26.787Z,24.42
2022-08-28T13:32:19.854Z,24.47
2022-08-28T13:35:25.173Z,24.32
2022-08-28T13:38:20.056Z,24.32
2022-08-28T13:41:13.203Z,24.22
2022-08-28T13:44:02.884Z,24.11
2022-08-28T13:46:55.742Z,24.17
2022-08-28T13:49:44.993Z,24.18
2022-08-28T13:52:37.499Z,24.18
2022-08-28T13:55:28.229Z,24.25
2022-08-28T13:58:18.181Z,24.26
2022-08-28T14:01:10.569Z,24.19
2022-08-28T14:04:01.144Z,24.19
2022-08-28T14:06:51.066Z,24.22
2022-08-28T14:09:41.477Z,24.21
2022-08-28T14:12:33.615Z,24.19
2022-08-28T14:15:25.758Z,24.32
2022-08-28T14:18:17.577Z,24.39
2022-08-28T14:21:09.306Z,24.51
2022-08-28T14:24:00.511Z,24.52
2022-08-28T14:26:51.595Z,24.69
2022-08-28T14:29:44.836Z,24.82
2022-08-28T14:32:37.474Z,24.83
2022-08-28T14:35:29.588Z,24.69
2022-08-28T14:38:21.363Z,24.70
2022-08-28T14:41:14.713Z,24.74
2022-08-28T14:44:04.375Z,24.94
2022-08-28T14:46:57.200Z,24.93
2022-08-28T14:49:46.702Z,24.93
2022-08-28T14:52:38.985Z,24.77
2022-08-28T14:55:30.842Z,24.66
2022-08-28T14:58:22.090Z,24.75
2022-08-28T15:01:30.246Z,24.73
2022-08-28T15:04:34.735Z,24.92
2022-08-28T15:07:26.769Z,24.91
2022-08-28T15:10:17.369Z,24.93
2022-08-28T15:13:10.375Z,24.84
2022-08-28T15:16:15.705Z,24.72
2022-08-28T15:19:13.200Z,24.78
2022-08-28T15:22:04.653Z,24.73
2022-08-28T15:24:55.795Z,24.85
2022-08-28T15:27:47.184Z,24.88
2022-08-28T15:30:39.855Z,24.90
2022-08-28T15:33:30.161Z,24.89
2022-08-28T15:36:24.589Z,24.96
2022-08-28T15:39:34.642Z,25.14
2022-08-28T15:42:26.386Z,25.05
2022-08-28T15:45:20.766Z,24.98
2022-08-28T15:48:13.818Z,24.96
2022-08-28T15:51:03.237Z,24.95
2022-08-28T15:53:54.862Z,24.95
2022-08-28T15:56:46.919Z,24.85
2022-08-28T15:59:49.741Z,24.95
2022-08-28T16:02:43.028Z,25.01
2022-08-28T16:05:40.669Z,25.06
2022-08-28T16:08:31.422Z,24.90
2022-08-28T16:11:23.658Z,24.86
2022-08-28T16:14:20.440Z,24.64
2022-08-28T16:17:11.677Z,24.52
2022-08-28T16:20:06.473Z,24.51
2022-08-28T16:23:02.602Z,24.46
2022-08-28T16:25:51.969Z,24.42
2022-08-28T16:28:44.942Z,24.33
2022-08-28T16:31:35.572Z,24.33
2022-08-28T16:34:31.480Z,24.33
2022-08-28T16:37:23.332Z,24.24
2022-08-28T16:40:14.848Z,24.45
2022-08-28T16:43:08.186Z,24.42
2022-08-28T16:45:58.192Z,24.38
2022-08-28T16:48:49.151Z,24.26
2022-08-28T16:51:39.922Z,24.18
2022-08-28T16:54:31.564Z,24.19
2022-08-28T16:57:22.542Z,24.03
2022-08-28T17:00:16.483Z,23.95
2022-08-28T17:03:04.763Z,23.90
2022-08-28T17:05:57.272Z,23.85
2022-08-28T17:08:48.261Z,23.88
2022-08-28T17:11:36.890Z,23.82
2022-08-28T17:14:30.621Z,23.76
2022-08-28T17:17:20.962Z,23.71
2022-08-28T17:20:31.666Z,23.71
2022-08-28T17:23:24.639Z,23.64
2022-08-28T17:26:17.675Z,23.63
2022-08-28T17:29:10.027Z,23.64
2022-08-28T17:32:01.325Z,23.57
2022-08-28T17:34:50.777Z,23.52
2022-08-28T17:37:43.861Z,23.46
2022-08-28T17:40:34.410Z,23.44
2022-08-28T17:43:28.161Z,23.39
2022-08-28T17:46:19.956Z,23.32
2022-08-28T17:49:11.609Z,23.13
2022-08-28T17:52:02.132Z,23.03
2022-08-28T17:54:50.215Z,22.85
2022-08-28T17:57:40.911Z,22.83
2022-08-28T18:00:28.929Z,22.77
2022-08-28T18:03:16.987Z,22.69
2022-08-28T18:06:06.767Z,22.62
2022-08-28T18:08:54.814Z,22.53
2022-08-28T18:11:43.257Z,22.36
2022-08-28T18:14:31.275Z,22.41
2022-08-28T18:17:19.482Z,22.35
2022-08-28T18:20:11.145Z,22.25
2022-08-28T18:23:01.385Z,22.31
2022-08-28T18:25:52.937Z,22.17
2022-08-28T18:28:43.619Z,22.09
2022-08-28T18:31:33.239Z,22.05
2022-08-28T18:34:22.648Z,21.88
2022-08-28T18:37:14.074Z,21.80
2022-08-28T18:40:03.435Z,21.73
2022-08-28T18:42:52.129Z,21.67
2022-08-28T18:45:42.294Z,21.46
2022-08-28T18:48:32.457Z,21.56
2022-08-28T18:51:23.423Z,21.37
2022-08-28T18:54:17.824Z,21.34
2022-08-28T18:57:05.949Z,21.19
2022-08-28T18:59:55.185Z,21.09
2022-08-28T19:02:44.130Z,20.99
2022-08-28T19:05:33.586Z,20.89
2022-08-28T19:08:22.990Z,20.86
2022-08-28T19:11:13.302Z,20.73
2022-08-28T19:14:03.946Z,20.57
2022-08-28T19:16:52.084Z,20.38
2022-08-28T19:19:40.083Z,20.38
2022-08-28T19:22:28.583Z,20.28
2022-08-28T19:25:27.907Z,20.22
2022-08-28T19:28:16.915Z,20.15
2022-08-28T19:31:05.286Z,20.09
2022-08-28T19:33:53.375Z,19.95
2022-08-28T19:36:41.943Z,19.82
2022-08-28T19:39:30.329Z,19.70
2022-08-28T19:42:19.467Z,19.67
2022-08-28T19:45:11.708Z,19.72
2022-08-28T19:48:00.210Z,19.64
2022-08-28T19:50:48.807Z,19.46
2022-08-28T19:53:37.615Z,19.56
2022-08-28T19:56:33.806Z,19.55
2022-08-28T19:59:26.526Z,19.52
2022-08-28T20:02:15.040Z,19.40
2022-08-28T20:05:04.647Z,19.52
2022-08-28T20:07:52.684Z,19.52
2022-08-28T20:10:43.743Z,19.43
2022-08-28T20:13:33.313Z,19.42
2022-08-28T20:16:21.766Z,19.42
2022-08-28T20:19:12.519Z,19.38
2022-08-28T20:22:00.380Z,19.42
2022-08-28T20:24:48.251Z,19.41
2022-08-28T20:27:36.525Z,19.19
2022-08-28T20:30:25.174Z,19.27
2022-08-28T20:33:13.490Z,19.24
2022-08-28T20:36:04.554Z,19.16
2022-08-28T20:38:52.619Z,19.06
2022-08-28T20:41:44.635Z,18.96
2022-08-28T20:44:32.530Z,19.06
2022-08-28T20:47:22.014Z,18.98
2022-08-28T20:50:12.696Z,18.86
2022-08-28T20:53:03.771Z,18.56
2022-08-28T20:55:59.892Z,18.56
2022-08-28T20:58:47.748Z,18.46
2022-08-28T21:01:35.807Z,18.42
2022-08-28T21:04:24.401Z,18.14
2022-08-28T21:07:15.702Z,18.23
2022-08-28T21:10:07.869Z,18.18
2022-08-28T21:12:55.990Z,18.12
2022-08-28T21:15:43.936Z,18.06
2022-08-28T21:18:31.887Z,18.05
2022-08-28T21:21:19.718Z,18.01
2022-08-28T21:24:12.309Z,18.08
2022-08-28T21:27:00.206Z,18.01
2022-08-28T21:29:48.088Z,18.04
2022-08-28T21:32:37.001Z,18.01
2022-08-28T21:35:24.907Z,18.04
2022-08-28T21:38:12.835Z,17.97
2022-08-28T21:41:14.538Z,17.84
2022-08-28T21:44:03.030Z,17.76
2022-08-28T21:46:51.102Z,17.52
2022-08-28T21:49:39.207Z,17.53
2022-08-28T21:52:30.399Z,17.45
2022-08-28T21:55:18.240Z,17.39
2022-08-28T21:58:06.046Z,17.43
2022-08-28T22:00:59.060Z,17.40
2022-08-28T22:03:47.621Z,17.22
2022-08-28T22:06:35.511Z,17.22
2022-08-28T22:09:24.877Z,17.17
2022-08-28T22:12:12.814Z,17.14
2022-08-28T22:15:01.048Z,17.03
2022-08-28T22:17:48.891Z,16.94
2022-08-28T22:20:59.237Z,16.88
2022-08-28T22:23:47.795Z,16.87
2022-08-28T22:26:36.193Z,16.80
2022-08-28T22:29:24.309Z,16.69
2022-08-28T22:32:12.180Z,16.70
2022-08-28T22:35:00.059Z,16.71
2022-08-28T22:37:47.880Z,16.72
2022-08-28T22:40:35.700Z,16.72
2022-08-28T22:43:24.131Z,16.69
2022-08-28T22:46:12.501Z,16.73
2022-08-28T22:49:00.398Z,16.79
2022-08-28T22:51:48.895Z,16.67
2022-08-28T22:54:36.920Z,16.74
2022-08-28T22:57:24.973Z,16.81
2022-08-28T23:00:19.521Z,16.84
2022-08-28T23:03:07.773Z,16.60
2022-08-28T23:05:55.600Z,16.76
2022-08-28T23:08:43.538Z,16.79
2022-08-28T23:11:31.493Z,16.74
2022-08-28T23:14:19.462Z,16.74
2022-08-28T23:17:07.559Z,16.62
2022-08-28T23:19:56.134Z,16.75
2022-08-28T23:22:43.981Z,16.73
2022-08-28T23:25:31.881Z,16.78
2022-08-28T23:28:20.298Z,16.65
2022-08-28T23:31:08.925Z,16.65
2022-08-28T23:33:56.715Z,16.64
2022-08-28T23:36:45.039Z,16.63
2022-08-28T23:39:33.486Z,16.54
2022-08-28T23:42:21.338Z,16.55
2022-08-28T23:45:11.554Z,16.61
2022-08-28T23:47:59.637Z,16.53
2022-08-28T23:50:47.766Z,16.59
2022-08-28T23:53:35.737Z,16.45
2022-08-28T23:56:23.858Z,16.45
2022-08-28T23:59:16.061Z,16.48
